Terminal Aerodrome Forecast
Issued by NWS

Current Version | Previous Version | Text Only | Print | Product List | Glossary Off
Versions: 1 2 3 4 5 6 7 8 9 10 11 12 13

000
FTUS44 KSJT 262320
TAFSOA
TAF
KSOA 262320Z 2700/2724 19016G22KT P6SM VCTS SCT050CB
      TEMPO 2700/2704 2SM -TSRA BKN050CB
     FM270400 16010KT P6SM VCSH OVC050
     FM270900 16010KT P6SM BKN015
     FM271100 21011G18KT P6SM SCT020
     FM271800 24014G22KT P6SM SKC=

USA.gov is the U.S. government's official web portal to all federal, state and local government web resources and services.